Time;durP1;ratioP1;P1;durP2;ratioP2;P2;SDS_P1;SDS_P2;PMS_P1;PMS_P2;Temp;Humidity;BMP_temperature;BMP_pressure;BME280_temperature;BME280_humidity;BME280_pressure;Samples;Min_cycle;Max_cycle;Signal;HPM_P1;HPM_P2
2024/03/03 00:00:13;;;;;;;;;;;;;;;7.88;83.66;99554.19;6184352;23;19916;-76
2024/03/03 00:02:38;;;;;;;;;;;;;;;7.83;84.12;99557.50;6183372;23;19919;-76
2024/03/03 00:05:04;;;;;;;;;;;;;;;7.88;84.51;99559.53;6183524;23;20356;-77
2024/03/03 00:07:29;;;;;;;;;;;;;;;7.81;84.29;99551.53;6185421;23;20313;-77
2024/03/03 00:09:54;;;;;;;;;;;;;;;7.83;84.58;99551.31;6185168;23;20292;-76
2024/03/03 00:12:19;;;;;;;;;;;;;;;7.89;83.91;99543.25;6183894;23;19923;-77
2024/03/03 00:14:45;;;;;;;;;;;;;;;7.91;84.01;99559.13;6183700;23;19913;-77
2024/03/03 00:17:12;;;;;;;;;;;;;;;7.90;84.74;99552.13;6184611;23;19943;-77
2024/03/03 00:19:39;;;;;;;;;;;;;;;7.93;83.90;99548.19;6185257;23;20339;-76
2024/03/03 00:22:04;;;;;;;;;;;;;;;7.98;83.73;99543.03;6184875;23;19913;-76
2024/03/03 00:24:33;;;;;;;;;;;;;;;7.98;84.11;99540.34;6183766;23;19935;-78
2024/03/03 00:26:58;;;;;;;;;;;;;;;7.95;84.25;99546.13;6183096;23;19919;-77
2024/03/03 00:29:23;;;;;;;;;;;;;;;7.92;84.06;99542.03;6183616;23;19912;-77
2024/03/03 00:31:49;;;;;;;;;;;;;;;7.89;85.08;99539.75;6181989;23;20381;-77
2024/03/03 00:34:14;;;;;;;;;;;;;;;7.85;84.77;99536.66;6184189;23;19956;-76
2024/03/03 00:36:39;;;;;;;;;;;;;;;7.81;85.04;99537.31;6183230;23;19980;-77
2024/03/03 00:39:05;;;;;;;;;;;;;;;7.77;85.19;99523.50;6183104;23;20175;-76
2024/03/03 00:41:30;;;;;;;;;;;;;;;7.74;85.37;99529.28;6183717;23;19916;-75
2024/03/03 00:43:55;;;;;;;;;;;;;;;7.74;85.09;99527.44;6182784;23;19916;-76
2024/03/03 00:46:20;;;;;;;;;;;;;;;7.72;85.57;99524.16;6182341;23;19921;-76
2024/03/03 00:48:45;;;;;;;;;;;;;;;7.70;84.95;99526.22;6184127;23;19920;-76
2024/03/03 00:51:11;;;;;;;;;;;;;;;7.59;86.14;99518.81;6182788;23;20015;-76
2024/03/03 00:53:36;;;;;;;;;;;;;;;7.51;86.09;99513.69;6182326;23;19968;-76
2024/03/03 00:56:01;;;;;;;;;;;;;;;7.47;87.23;99515.16;6183942;23;19912;-75
2024/03/03 00:58:27;;;;;;;;;;;;;;;7.40;86.94;99515.16;6182762;23;19975;-75
2024/03/03 01:00:52;;;;;;;;;;;;;;;7.39;87.90;99502.81;6182233;23;19919;-76
2024/03/03 01:03:18;;;;;;;;;;;;;;;7.35;87.07;99505.09;6184166;23;19917;-75
2024/03/03 01:05:43;;;;;;;;;;;;;;;7.30;87.44;99504.88;6182417;23;19983;-75
2024/03/03 01:08:08;;;;;;;;;;;;;;;7.25;88.21;99497.50;6181838;23;20302;-76
2024/03/03 01:10:33;;;;;;;;;;;;;;;7.22;88.46;99507.78;6183911;23;19930;-76
2024/03/03 01:12:58;;;;;;;;;;;;;;;7.20;88.26;99499.97;6183135;23;19994;-76
2024/03/03 01:15:24;;;;;;;;;;;;;;;7.18;89.20;99498.53;6180753;23;19990;-76
2024/03/03 01:17:49;;;;;;;;;;;;;;;7.05;89.42;99499.34;6183913;23;19993;-77
2024/03/03 01:20:14;;;;;;;;;;;;;;;7.04;89.14;99498.56;6183309;23;19919;-77
2024/03/03 01:22:40;;;;;;;;;;;;;;;7.00;89.92;99491.97;6184778;23;19913;-77
2024/03/03 01:25:06;;;;;;;;;;;;;;;7.00;89.59;99491.97;6187901;23;19912;-76
2024/03/03 01:27:31;;;;;;;;;;;;;;;6.97;90.37;99487.03;6182813;23;20360;-76
2024/03/03 01:29:56;;;;;;;;;;;;;;;6.94;90.47;99490.09;6183104;23;19936;-76
2024/03/03 01:32:25;;;;;;;;;;;;;;;6.88;90.31;99490.94;6184102;23;20392;-75
2024/03/03 01:34:50;;;;;;;;;;;;;;;6.87;91.18;99489.31;6182406;23;19913;-75
2024/03/03 01:37:17;;;;;;;;;;;;;;;6.90;90.91;99484.34;6182033;23;19916;-77
2024/03/03 01:39:43;;;;;;;;;;;;;;;6.93;90.71;99483.94;6184285;23;19916;-75
2024/03/03 01:42:08;;;;;;;;;;;;;;;6.93;91.28;99467.06;6182677;23;19947;-75
2024/03/03 01:44:33;;;;;;;;;;;;;;;6.93;90.75;99473.25;6184588;23;19924;-76
2024/03/03 01:46:58;;;;;;;;;;;;;;;6.93;91.28;99477.75;6186183;23;19975;-75
2024/03/03 01:49:24;;;;;;;;;;;;;;;6.98;90.31;99475.28;6160564;23;19936;-75
2024/03/03 01:51:49;;;;;;;;;;;;;;;6.94;90.89;99469.53;6167800;23;19944;-76
2024/03/03 01:54:14;;;;;;;;;;;;;;;6.92;91.54;99470.75;6188519;23;19912;-75
2024/03/03 01:56:39;;;;;;;;;;;;;;;6.91;90.67;99475.31;6163877;23;19920;-76
2024/03/03 01:59:05;;;;;;;;;;;;;;;6.89;91.39;99482.72;6129753;23;19936;-75
2024/03/03 02:01:30;;;;;;;;;;;;;;;6.89;91.31;99473.84;6130207;23;19912;-75
2024/03/03 02:03:55;;;;;;;;;;;;;;;6.79;92.14;99468.94;6127817;23;19947;-75
2024/03/03 02:06:21;;;;;;;;;;;;;;;6.74;92.57;99471.41;6155799;23;19987;-76
2024/03/03 02:08:47;;;;;;;;;;;;;;;6.63;92.96;99465.63;6155388;23;19967;-75
2024/03/03 02:11:12;;;;;;;;;;;;;;;6.60;93.05;99483.94;6154792;23;19920;-76
2024/03/03 02:13:37;;;;;;;;;;;;;;;6.50;94.03;99474.47;6154800;23;20246;-76
2024/03/03 02:16:06;;;;;;;;;;;;;;;6.53;93.90;99487.41;6155989;23;20275;-76
2024/03/03 02:18:32;;;;;;;;;;;;;;;6.50;94.45;99485.16;6158565;23;19913;-76
2024/03/03 02:20:57;;;;;;;;;;;;;;;6.52;94.40;99484.97;6158059;23;20003;-76
2024/03/03 02:23:25;;;;;;;;;;;;;;;6.42;94.66;99481.88;6157264;23;19940;-74
2024/03/03 02:25:50;;;;;;;;;;;;;;;6.41;95.30;99488.25;6155682;23;19931;-74
2024/03/03 02:28:15;;;;;;;;;;;;;;;6.40;95.55;99489.25;6129985;23;20604;-73
2024/03/03 02:30:41;;;;;;;;;;;;;;;6.40;95.59;99475.91;6157976;23;19917;-73
2024/03/03 02:33:06;;;;;;;;;;;;;;;6.36;95.96;99467.44;6155490;23;19917;-74
2024/03/03 02:35:31;;;;;;;;;;;;;;;6.44;96.25;99477.97;6156912;23;20242;-73
2024/03/03 02:37:56;;;;;;;;;;;;;;;6.44;95.57;99479.81;6156791;23;20250;-73
2024/03/03 02:40:22;;;;;;;;;;;;;;;6.43;95.55;99475.50;6156171;23;19913;-74
2024/03/03 02:42:48;;;;;;;;;;;;;;;6.48;95.79;99479.19;6158256;23;19913;-75
2024/03/03 02:45:13;;;;;;;;;;;;;;;6.53;95.31;99484.75;6144061;23;19917;-73
2024/03/03 02:47:38;;;;;;;;;;;;;;;6.55;94.91;99489.06;6173366;23;19913;-73
2024/03/03 02:50:04;;;;;;;;;;;;;;;6.53;94.66;99481.25;6158997;23;20287;-72
2024/03/03 02:52:29;;;;;;;;;;;;;;;6.52;94.55;99475.09;6156376;23;20290;-73
2024/03/03 02:54:57;;;;;;;;;;;;;;;6.59;94.50;99479.59;6157293;23;20213;-72
2024/03/03 02:57:22;;;;;;;;;;;;;;;6.59;94.48;99480.44;6155980;23;19924;-73
2024/03/03 02:59:49;;;;;;;;;;;;;;;6.58;94.65;99470.78;6155392;23;20255;-72
2024/03/03 03:02:14;;;;;;;;;;;;;;;6.58;94.87;99469.94;6132568;23;19912;-73
2024/03/03 03:04:39;;;;;;;;;;;;;;;6.53;94.73;99474.03;6157258;23;19927;-73
2024/03/03 03:07:04;;;;;;;;;;;;;;;6.59;94.48;99477.78;6153073;23;19991;-75
2024/03/03 03:09:30;;;;;;;;;;;;;;;6.64;94.31;99469.13;6156141;23;19925;-73
2024/03/03 03:11:58;;;;;;;;;;;;;;;6.70;94.16;99462.13;6153469;23;19940;-73
2024/03/03 03:14:28;;;;;;;;;;;;;;;6.67;93.91;99471.41;6154253;23;20273;-72
2024/03/03 03:16:53;;;;;;;;;;;;;;;6.69;94.11;99472.03;6155286;23;20338;-73
2024/03/03 03:19:19;;;;;;;;;;;;;;;6.70;94.43;99479.00;6155131;23;19991;-73
2024/03/03 03:21:44;;;;;;;;;;;;;;;6.63;94.92;99491.56;6153487;23;19913;-73
2024/03/03 03:24:09;;;;;;;;;;;;;;;6.58;95.24;99481.47;6155773;23;19916;-73
2024/03/03 03:26:38;;;;;;;;;;;;;;;6.56;95.33;99488.88;6154114;23;19916;-73
2024/03/03 03:29:03;;;;;;;;;;;;;;;6.59;95.08;99496.50;6153906;23;19920;-74
2024/03/03 03:31:29;;;;;;;;;;;;;;;6.61;95.01;99490.94;6155581;23;19932;-73
2024/03/03 03:33:54;;;;;;;;;;;;;;;6.59;95.13;99498.31;6154705;23;19916;-74
2024/03/03 03:36:19;;;;;;;;;;;;;;;6.56;95.38;99498.72;6153569;23;19912;-74
2024/03/03 03:38:45;;;;;;;;;;;;;;;6.55;95.15;99492.56;6155294;23;20007;-74
2024/03/03 03:41:10;;;;;;;;;;;;;;;6.57;95.66;99495.03;6154489;23;19926;-74
2024/03/03 03:43:35;;;;;;;;;;;;;;;6.60;95.46;99506.16;6156731;23;20222;-74
2024/03/03 03:46:01;;;;;;;;;;;;;;;6.65;94.89;99502.88;6156309;23;19913;-74
2024/03/03 03:48:26;;;;;;;;;;;;;;;6.61;95.08;99502.47;6154662;23;19976;-74
2024/03/03 03:50:51;;;;;;;;;;;;;;;6.63;94.76;99510.28;6153225;23;19927;-72
2024/03/03 03:53:16;;;;;;;;;;;;;;;6.57;94.94;99516.41;6156878;23;19916;-72
2024/03/03 03:55:42;;;;;;;;;;;;;;;6.57;95.63;99511.06;6154154;23;19916;-73
2024/03/03 03:58:16;;;;;;;;;;;;;;;6.57;95.42;99508.41;6153541;23;20000;-73
2024/03/03 04:00:42;;;;;;;;;;;;;;;6.56;95.75;99498.72;6155273;23;19979;-73
2024/03/03 04:03:07;;;;;;;;;;;;;;;6.53;96.23;99500.78;6154266;23;19999;-74
2024/03/03 04:05:35;;;;;;;;;;;;;;;6.53;96.19;99494.63;6155361;23;19924;-72
2024/03/03 04:08:01;;;;;;;;;;;;;;;6.54;96.04;99485.56;6155457;23;19983;-73
2024/03/03 04:10:26;;;;;;;;;;;;;;;6.57;95.93;99493.19;6153172;23;20261;-72
2024/03/03 04:12:52;;;;;;;;;;;;;;;6.58;96.09;99491.34;6154235;23;19912;-73
2024/03/03 04:15:17;;;;;;;;;;;;;;;6.60;95.92;99486.59;6153864;23;19919;-73
2024/03/03 04:17:43;;;;;;;;;;;;;;;6.52;96.25;99487.63;6153226;23;19913;-73
2024/03/03 04:20:08;;;;;;;;;;;;;;;6.51;96.55;99486.81;6153934;23;19951;-73
2024/03/03 04:22:33;;;;;;;;;;;;;;;6.48;96.53;99492.56;6154383;23;19913;-72
2024/03/03 04:24:59;;;;;;;;;;;;;;;6.42;96.96;99487.22;6153601;23;19913;-73
2024/03/03 04:27:24;;;;;;;;;;;;;;;6.43;97.54;99488.88;6153546;23;19919;-73
2024/03/03 04:29:49;;;;;;;;;;;;;;;6.45;97.41;99489.47;6154019;23;20330;-74
2024/03/03 04:32:14;;;;;;;;;;;;;;;6.48;97.33;99486.38;6153527;23;19913;-72
2024/03/03 04:34:40;;;;;;;;;;;;;;;6.57;96.97;99489.69;6153482;23;19959;-73
2024/03/03 04:37:08;;;;;;;;;;;;;;;6.62;96.46;99498.72;6154682;23;19916;-73
2024/03/03 04:39:35;;;;;;;;;;;;;;;6.58;96.68;99494.84;6153140;23;19923;-73
2024/03/03 04:42:02;;;;;;;;;;;;;;;6.62;96.47;99498.72;6153919;23;19913;-73
2024/03/03 04:44:27;;;;;;;;;;;;;;;6.61;97.25;99486.41;6154230;23;19917;-73
2024/03/03 04:46:53;;;;;;;;;;;;;;;6.58;96.72;99488.66;6153647;23;19924;-73
2024/03/03 04:49:18;;;;;;;;;;;;;;;6.61;96.77;99494.44;6153567;23;20337;-73
2024/03/03 04:51:43;;;;;;;;;;;;;;;6.62;96.94;99500.59;6153987;23;20378;-73
2024/03/03 04:54:09;;;;;;;;;;;;;;;6.65;97.04;99501.00;6153778;23;20322;-73
2024/03/03 04:56:34;;;;;;;;;;;;;;;6.65;96.63;99509.03;6153496;23;20377;-72
2024/03/03 04:58:59;;;;;;;;;;;;;;;6.72;95.94;99513.56;6154044;23;19924;-73
2024/03/03 05:01:24;;;;;;;;;;;;;;;6.74;96.15;99522.22;6154408;23;20334;-73
2024/03/03 05:03:50;;;;;;;;;;;;;;;6.75;95.37;99521.19;6162656;23;19916;-75
2024/03/03 05:06:15;;;;;;;;;;;;;;;6.72;95.86;99522.41;6160545;23;19913;-73
2024/03/03 05:08:40;;;;;;;;;;;;;;;6.68;96.23;99524.66;6154780;23;19991;-73
2024/03/03 05:11:06;;;;;;;;;;;;;;;6.73;95.83;99532.06;6153822;23;19912;-74
2024/03/03 05:13:32;;;;;;;;;;;;;;;6.67;95.98;99535.59;6152406;23;19913;-74
2024/03/03 05:15:58;;;;;;;;;;;;;;;6.65;96.30;99534.97;6154429;23;19919;-73
2024/03/03 05:18:23;;;;;;;;;;;;;;;6.61;96.88;99537.22;6153245;23;20360;-73
2024/03/03 05:20:49;;;;;;;;;;;;;;;6.65;96.58;99540.31;6152860;23;19919;-74
2024/03/03 05:23:14;;;;;;;;;;;;;;;6.59;96.42;99535.75;6154393;23;20242;-73
2024/03/03 05:25:40;;;;;;;;;;;;;;;6.59;97.19;99546.47;6153597;23;19928;-73
2024/03/03 05:28:05;;;;;;;;;;;;;;;6.58;96.83;99550.16;6152635;23;19916;-73
2024/03/03 05:30:38;;;;;;;;;;;;;;;6.54;97.48;99549.75;6159180;23;20402;-72
2024/03/03 05:33:04;;;;;;;;;;;;;;;6.50;97.23;99549.34;6163910;23;19920;-71
2024/03/03 05:35:29;;;;;;;;;;;;;;;6.45;97.52;99559.81;6154162;23;19923;-72
2024/03/03 05:37:55;;;;;;;;;;;;;;;6.39;97.66;99557.13;6154452;23;20249;-73
2024/03/03 05:40:20;;;;;;;;;;;;;;;6.38;98.19;99561.63;6153562;23;19920;-72
2024/03/03 05:42:45;;;;;;;;;;;;;;;6.33;98.36;99572.94;6152428;23;19972;-73
2024/03/03 05:45:10;;;;;;;;;;;;;;;6.35;98.77;99578.09;6154330;23;19919;-73
2024/03/03 05:47:35;;;;;;;;;;;;;;;6.33;98.79;99580.13;6127326;23;19935;-73
2024/03/03 05:50:03;;;;;;;;;;;;;;;6.29;98.51;99578.88;6152692;23;19912;-73
2024/03/03 05:52:30;;;;;;;;;;;;;;;6.24;99.43;99594.69;6155870;23;19960;-77
2024/03/03 05:54:55;;;;;;;;;;;;;;;6.19;99.84;99596.09;6155505;23;19912;-74
2024/03/03 05:57:20;;;;;;;;;;;;;;;6.15;99.91;99596.69;6158262;23;19955;-76
2024/03/03 05:59:45;;;;;;;;;;;;;;;6.07;100.00;99592.34;6169595;23;19917;-76
2024/03/03 06:02:10;;;;;;;;;;;;;;;6.03;100.00;99607.13;6161221;23;19940;-76
2024/03/03 06:04:36;;;;;;;;;;;;;;;6.11;100.00;99614.16;6127454;23;20321;-77
2024/03/03 06:07:02;;;;;;;;;;;;;;;6.02;100.00;99614.31;6157478;23;19913;-77
2024/03/03 06:09:27;;;;;;;;;;;;;;;5.95;100.00;99609.94;6156071;23;20241;-77
2024/03/03 06:11:53;;;;;;;;;;;;;;;5.95;100.00;99609.94;6156412;23;19959;-76
2024/03/03 06:14:21;;;;;;;;;;;;;;;5.86;100.00;99611.94;6156622;23;19912;-75
2024/03/03 06:16:46;;;;;;;;;;;;;;;5.84;100.00;99614.78;6156199;23;19991;-75
2024/03/03 06:19:11;;;;;;;;;;;;;;;5.82;100.00;99616.03;6159131;23;19920;-75
2024/03/03 06:21:36;;;;;;;;;;;;;;;5.82;100.00;99626.72;6163796;23;19916;-77
2024/03/03 06:24:13;;;;;;;;;;;;;;;5.82;100.00;99637.38;6162524;23;19913;-83
2024/03/03 06:26:38;;;;;;;;;;;;;;;5.78;100.00;99610.25;6173020;23;19913;-76
2024/03/03 06:29:04;;;;;;;;;;;;;;;5.79;100.00;99624.41;6168678;23;20318;-75
2024/03/03 06:31:29;;;;;;;;;;;;;;;5.81;100.00;99614.38;6156747;23;19920;-78
2024/03/03 06:33:54;;;;;;;;;;;;;;;5.87;100.00;99618.94;6158197;23;19978;-78
2024/03/03 06:36:20;;;;;;;;;;;;;;;5.95;100.00;99620.63;6158621;23;19912;-78
2024/03/03 06:38:45;;;;;;;;;;;;;;;6.08;100.00;99615.38;6157064;23;19971;-78
2024/03/03 06:41:11;;;;;;;;;;;;;;;6.19;100.00;99622.00;6158536;23;19912;-78
2024/03/03 06:43:36;;;;;;;;;;;;;;;6.37;100.00;99621.44;6156923;23;19912;-78
2024/03/03 06:46:11;;;;;;;;;;;;;;;6.55;100.00;99614.72;6156636;23;19915;-78
2024/03/03 06:48:39;;;;;;;;;;;;;;;6.64;99.49;99616.22;6155694;23;19963;-78
2024/03/03 06:51:07;;;;;;;;;;;;;;;6.60;99.44;99622.97;6156648;23;20218;-78
2024/03/03 06:53:39;;;;;;;;;;;;;;;6.60;99.51;99633.66;6155746;23;20381;-77
2024/03/03 06:56:05;;;;;;;;;;;;;;;6.55;99.58;99639.63;6155717;23;20341;-77
2024/03/03 06:58:30;;;;;;;;;;;;;;;6.49;100.00;99643.94;6156077;23;19919;-77
2024/03/03 07:00:55;;;;;;;;;;;;;;;6.48;100.00;99650.31;6155092;23;19923;-77
2024/03/03 07:06:04;;;;;;;;;;;;;;;6.56;99.89;99653.81;6154939;23;19971;-78
2024/03/03 07:08:30;;;;;;;;;;;;;;;6.51;100.00;99655.25;6155669;23;19916;-77
2024/03/03 07:10:55;;;;;;;;;;;;;;;6.48;100.00;99646.78;6155704;23;19975;-77
2024/03/03 07:13:20;;;;;;;;;;;;;;;6.53;100.00;99649.69;6155199;23;19912;-77
2024/03/03 07:15:46;;;;;;;;;;;;;;;6.71;99.64;99651.78;6155599;23;20297;-77
2024/03/03 07:18:11;;;;;;;;;;;;;;;6.75;99.80;99646.91;6155710;23;20215;-78
2024/03/03 07:20:36;;;;;;;;;;;;;;;6.95;99.01;99647.78;6154897;23;19972;-78
2024/03/03 07:23:04;;;;;;;;;;;;;;;7.10;97.79;99652.91;6156172;23;19917;-77
2024/03/03 07:25:30;;;;;;;;;;;;;;;7.22;97.38;99647.78;6155167;23;19912;-77
2024/03/03 07:27:56;;;;;;;;;;;;;;;7.41;95.87;99646.13;6153170;23;19919;-77
2024/03/03 07:30:21;;;;;;;;;;;;;;;7.52;94.57;99650.06;6156074;23;19951;-77
2024/03/03 07:32:46;;;;;;;;;;;;;;;7.72;93.43;99646.53;6155231;23;19991;-76
2024/03/03 07:35:11;;;;;;;;;;;;;;;7.87;92.96;99652.50;6154281;23;19917;-76
2024/03/03 07:37:36;;;;;;;;;;;;;;;8.19;91.35;99652.66;6156205;23;20310;-76
2024/03/03 07:40:04;;;;;;;;;;;;;;;8.37;89.43;99659.19;6155135;23;20338;-76
2024/03/03 07:42:30;;;;;;;;;;;;;;;8.49;88.39;99660.19;6154955;23;20063;-76
2024/03/03 07:44:55;;;;;;;;;;;;;;;8.63;87.58;99652.06;6156088;23;19912;-76
2024/03/03 07:47:20;;;;;;;;;;;;;;;8.62;86.99;99653.94;6154741;23;19920;-76
2024/03/03 07:49:45;;;;;;;;;;;;;;;8.79;85.42;99659.63;6154340;23;19920;-77
2024/03/03 07:52:11;;;;;;;;;;;;;;;9.11;84.39;99661.53;6156120;23;19968;-77
2024/03/03 07:54:36;;;;;;;;;;;;;;;9.31;82.91;99657.88;6154650;23;19960;-78
2024/03/03 07:57:01;;;;;;;;;;;;;;;9.04;83.41;99660.72;6153369;23;19921;-78
2024/03/03 07:59:26;;;;;;;;;;;;;;;9.23;83.19;99670.50;6155322;23;19972;-78
2024/03/03 08:01:51;;;;;;;;;;;;;;;9.54;81.90;99666.13;6154268;23;19961;-77
2024/03/03 08:04:17;;;;;;;;;;;;;;;9.69;80.82;99675.75;6154050;23;19923;-76
2024/03/03 08:06:42;;;;;;;;;;;;;;;10.15;79.73;99673.63;6152059;23;19944;-77
2024/03/03 08:09:09;;;;;;;;;;;;;;;10.60;77.13;99675.22;6182236;23;19924;-77
2024/03/03 08:11:37;;;;;;;;;;;;;;;10.93;75.27;99668.59;6184324;23;19923;-78
2024/03/03 08:14:02;;;;;;;;;;;;;;;11.18;73.44;99667.59;6186596;23;19913;-78
2024/03/03 08:16:31;;;;;;;;;;;;;;;11.22;72.63;99655.31;6183665;23;20292;-78
2024/03/03 08:18:59;;;;;;;;;;;;;;;11.28;72.57;99665.19;6184466;23;19935;-76
2024/03/03 08:21:25;;;;;;;;;;;;;;;11.92;70.17;99669.94;6185411;23;19919;-78
2024/03/03 08:23:50;;;;;;;;;;;;;;;11.85;69.80;99654.91;6184571;23;19943;-77
2024/03/03 08:26:15;;;;;;;;;;;;;;;11.91;69.82;99659.38;6184751;23;20322;-77
2024/03/03 08:28:43;;;;;;;;;;;;;;;11.94;69.41;99656.19;6185668;23;19990;-77
2024/03/03 08:31:09;;;;;;;;;;;;;;;11.20;71.24;99646.66;6184170;23;19917;-77
2024/03/03 08:33:34;;;;;;;;;;;;;;;11.26;71.53;99655.69;6184455;23;19922;-76
2024/03/03 08:36:02;;;;;;;;;;;;;;;11.00;72.82;99652.34;6185938;23;19936;-77
2024/03/03 08:38:31;;;;;;;;;;;;;;;10.98;73.41;99654.44;6184457;23;19931;-78
2024/03/03 08:40:56;;;;;;;;;;;;;;;11.01;73.62;99665.56;6181999;23;20238;-76
2024/03/03 08:43:22;;;;;;;;;;;;;;;11.42;71.82;99664.97;6186537;23;19912;-78
2024/03/03 08:45:47;;;;;;;;;;;;;;;11.66;71.37;99665.81;6186306;23;19912;-76
2024/03/03 08:48:12;;;;;;;;;;;;;;;12.06;70.29;99658.91;6201288;23;19960;-76
2024/03/03 08:50:38;;;;;;;;;;;;;;;12.83;67.10;99663.19;6196685;23;19919;-78
2024/03/03 08:53:04;;;;;;;;;;;;;;;13.04;66.36;99669.78;6188252;23;19912;-77
2024/03/03 08:55:29;;;;;;;;;;;;;;;13.99;61.24;99675.66;6187478;23;19918;-76
2024/03/03 08:57:54;;;;;;;;;;;;;;;14.38;59.67;99679.16;6185354;23;19982;-77
2024/03/03 09:00:20;;;;;;;;;;;;;;;14.96;57.66;99681.47;6184577;23;19970;-77
2024/03/03 09:02:45;;;;;;;;;;;;;;;14.56;58.72;99680.72;6184930;23;19912;-77
2024/03/03 09:05:11;;;;;;;;;;;;;;;14.57;59.07;99673.44;6183977;23;19912;-77
2024/03/03 09:07:36;;;;;;;;;;;;;;;14.33;59.55;99675.56;6184574;23;19916;-78
2024/03/03 09:10:01;;;;;;;;;;;;;;;13.55;61.44;99666.34;6186938;23;20337;-78
2024/03/03 09:12:26;;;;;;;;;;;;;;;13.16;63.84;99664.31;6187434;23;19971;-77
2024/03/03 09:14:52;;;;;;;;;;;;;;;12.74;65.65;99660.06;6197656;23;19916;-78
2024/03/03 09:17:17;;;;;;;;;;;;;;;12.98;65.56;99659.13;6202005;23;19912;-78
2024/03/03 09:19:42;;;;;;;;;;;;;;;12.96;66.31;99666.66;6187855;23;19975;-77
2024/03/03 09:22:07;;;;;;;;;;;;;;;13.53;63.79;99662.25;6188605;23;19920;-78
2024/03/03 09:24:35;;;;;;;;;;;;;;;14.05;62.13;99667.34;6185332;23;20363;-78
2024/03/03 09:27:01;;;;;;;;;;;;;;;14.84;58.91;99672.66;6185819;23;19916;-78
2024/03/03 09:29:26;;;;;;;;;;;;;;;15.22;56.81;99668.16;6186248;23;19947;-78
2024/03/03 09:31:51;;;;;;;;;;;;;;;14.31;59.69;99670.38;6185569;23;19923;-78
2024/03/03 09:34:17;;;;;;;;;;;;;;;14.12;61.47;99682.59;6185099;23;19958;-78
2024/03/03 09:36:43;;;;;;;;;;;;;;;13.74;62.91;99685.00;6186899;23;19916;-78
2024/03/03 09:39:09;;;;;;;;;;;;;;;14.60;59.86;99693.75;6185624;23;19924;-78
2024/03/03 09:41:34;;;;;;;;;;;;;;;15.46;56.36;99692.25;6188618;23;19922;-78
2024/03/03 09:44:07;;;;;;;;;;;;;;;15.27;56.62;99708.88;6204293;23;19912;-78
2024/03/03 09:46:32;;;;;;;;;;;;;;;15.45;56.60;99698.75;6192949;23;19913;-78
2024/03/03 09:48:57;;;;;;;;;;;;;;;15.07;57.70;99698.66;6185944;23;19916;-78
2024/03/03 09:51:24;;;;;;;;;;;;;;;14.89;57.76;99704.44;6187280;23;19912;-78
2024/03/03 09:53:51;;;;;;;;;;;;;;;14.63;58.77;99710.34;6186999;23;19956;-77
2024/03/03 09:56:16;;;;;;;;;;;;;;;14.65;59.53;99701.94;6159150;23;19942;-77
2024/03/03 09:58:44;;;;;;;;;;;;;;;15.15;57.59;99709.03;6187555;23;19958;-77
2024/03/03 10:01:10;;;;;;;;;;;;;;;14.69;58.41;99706.63;6187625;23;19912;-78
2024/03/03 10:03:36;;;;;;;;;;;;;;;14.49;60.42;99715.31;6188798;23;19994;-78
2024/03/03 10:06:01;;;;;;;;;;;;;;;15.04;59.70;99701.06;6193647;23;19912;-78
2024/03/03 10:08:27;;;;;;;;;;;;;;;15.51;56.39;99710.44;6166895;23;19916;-78
2024/03/03 10:10:54;;;;;;;;;;;;;;;15.48;55.36;99708.25;6197101;23;19900;-78
2024/03/03 10:13:20;;;;;;;;;;;;;;;15.49;54.93;99704.47;6179497;23;19900;-78
2024/03/03 10:15:47;;;;;;;;;;;;;;;15.19;55.36;99703.91;6149279;23;19967;-79
2024/03/03 10:18:21;;;;;;;;;;;;;;;14.99;56.82;99693.69;6104007;23;19913;-78
2024/03/03 10:20:47;;;;;;;;;;;;;;;15.10;57.69;99702.75;6104425;23;19959;-79
2024/03/03 10:23:22;;;;;;;;;;;;;;;14.79;58.44;99702.44;6098857;23;19921;-78
2024/03/03 10:26:11;;;;;;;;;;;;;;;14.59;59.31;99695.66;6100517;23;19921;-79
2024/03/03 10:28:55;;;;;;;;;;;;;;;14.73;58.57;99703.44;6101759;23;19914;-78
2024/03/03 10:31:31;;;;;;;;;;;;;;;14.15;60.93;99704.56;6098528;23;19913;-79
2024/03/03 10:34:18;;;;;;;;;;;;;;;14.12;61.10;99704.25;6098944;23;19924;-79
2024/03/03 10:36:44;;;;;;;;;;;;;;;14.02;60.98;99697.63;6097809;23;20327;-78
2024/03/03 10:39:15;;;;;;;;;;;;;;;14.37;60.87;99701.06;6098421;23;19918;-78
2024/03/03 10:41:46;;;;;;;;;;;;;;;14.64;59.98;99701.16;6097876;23;20256;-77
2024/03/03 10:44:12;;;;;;;;;;;;;;;14.67;59.73;99702.53;6097706;23;19964;-77
2024/03/03 10:46:43;;;;;;;;;;;;;;;15.02;59.14;99693.19;6097252;23;19918;-77
2024/03/03 10:49:15;;;;;;;;;;;;;;;15.14;56.40;99695.75;6072057;23;19920;-78
2024/03/03 10:51:49;;;;;;;;;;;;;;;14.91;56.75;99694.97;6097276;23;19957;-78
2024/03/03 10:54:15;;;;;;;;;;;;;;;15.12;55.51;99687.06;6097939;23;19921;-78
2024/03/03 10:56:40;;;;;;;;;;;;;;;14.94;56.80;99693.63;6072115;23;19913;-78
2024/03/03 10:59:21;;;;;;;;;;;;;;;14.89;57.38;99690.88;6096620;23;19920;-78
2024/03/03 11:02:04;;;;;;;;;;;;;;;14.82;56.49;99696.50;6096293;23;19914;-77
2024/03/03 11:04:39;;;;;;;;;;;;;;;14.73;56.83;99681.75;6097602;23;19913;-77
2024/03/03 11:07:13;;;;;;;;;;;;;;;14.52;58.13;99681.47;6071058;23;19924;-78
2024/03/03 11:09:44;;;;;;;;;;;;;;;14.56;57.20;99683.41;6093967;23;19914;-77
2024/03/03 11:12:12;;;;;;;;;;;;;;;14.46;57.33;99682.50;6070823;23;20260;-77
2024/03/03 11:14:40;;;;;;;;;;;;;;;14.42;57.88;99679.47;6097284;23;20295;-77
2024/03/03 11:17:06;;;;;;;;;;;;;;;14.33;57.98;99684.50;6118429;23;20012;-78
2024/03/03 11:19:35;;;;;;;;;;;;;;;14.58;57.56;99683.19;6124956;23;20298;-77
2024/03/03 11:22:01;;;;;;;;;;;;;;;15.08;57.77;99681.34;6126689;23;19941;-78
2024/03/03 11:24:32;;;;;;;;;;;;;;;15.94;54.96;99681.50;6125857;23;19920;-79
2024/03/03 11:27:04;;;;;;;;;;;;;;;16.34;51.13;99669.22;6124655;23;19920;-78
2024/03/03 11:29:29;;;;;;;;;;;;;;;17.83;48.62;99678.75;6127342;23;19924;-78
2024/03/03 11:32:04;;;;;;;;;;;;;;;19.20;43.41;99676.88;6125281;23;19917;-76
2024/03/03 11:34:29;;;;;;;;;;;;;;;20.43;41.33;99674.09;6122137;23;19913;-77
2024/03/03 11:36:54;;;;;;;;;;;;;;;21.04;40.31;99674.38;6122662;23;19991;-76
2024/03/03 11:39:21;;;;;;;;;;;;;;;21.63;38.61;99671.31;6124078;23;20112;-76
2024/03/03 11:41:46;;;;;;;;;;;;;;;22.71;36.64;99664.88;6121506;23;19913;-77
2024/03/03 11:44:33;;;;;;;;;;;;;;;22.03;36.86;99662.63;6122986;23;19980;-76
2024/03/03 11:46:59;;;;;;;;;;;;;;;21.66;38.25;99667.13;6121643;23;19948;-76
2024/03/03 11:49:25;;;;;;;;;;;;;;;21.99;37.01;99658.06;6120801;23;19967;-76
2024/03/03 11:51:50;;;;;;;;;;;;;;;22.42;35.39;99668.75;6122835;23;19925;-76
2024/03/03 11:54:28;;;;;;;;;;;;;;;22.46;35.17;99656.06;6127289;23;19952;-77
2024/03/03 11:56:56;;;;;;;;;;;;;;;22.32;35.48;99657.97;6123988;23;19920;-77
2024/03/03 11:59:32;;;;;;;;;;;;;;;22.43;36.17;99659.41;6122845;23;20273;-78
2024/03/03 12:01:57;;;;;;;;;;;;;;;22.52;35.61;99645.78;6121254;23;20287;-76
2024/03/03 12:04:22;;;;;;;;;;;;;;;22.68;36.20;99643.53;6120607;23;19920;-75
2024/03/03 12:06:49;;;;;;;;;;;;;;;22.65;35.48;99634.00;6122767;23;20318;-75
2024/03/03 12:09:17;;;;;;;;;;;;;;;22.38;36.51;99634.81;6121604;23;20362;-76
2024/03/03 12:11:42;;;;;;;;;;;;;;;22.42;36.74;99630.38;6122720;23;19916;-75
2024/03/03 12:14:07;;;;;;;;;;;;;;;22.65;35.98;99635.91;6122169;23;19932;-75
2024/03/03 12:16:32;;;;;;;;;;;;;;;22.95;35.79;99636.34;6121625;23;19917;-75
2024/03/03 12:18:59;;;;;;;;;;;;;;;23.02;35.97;99633.97;6123795;23;19955;-77
2024/03/03 12:21:24;;;;;;;;;;;;;;;23.42;35.70;99628.66;6122693;23;19975;-78
2024/03/03 12:23:49;;;;;;;;;;;;;;;22.89;35.83;99634.84;6162208;23;20003;-78
2024/03/03 12:26:14;;;;;;;;;;;;;;;22.08;37.03;99621.44;6183817;23;20444;-77
2024/03/03 12:28:42;;;;;;;;;;;;;;;21.72;36.16;99619.38;6156939;23;19908;-78
2024/03/03 12:31:10;;;;;;;;;;;;;;;21.44;36.73;99623.97;6181942;23;19916;-77
2024/03/03 12:33:44;;;;;;;;;;;;;;;22.08;35.80;99626.91;6181894;23;20394;-76
2024/03/03 12:36:09;;;;;;;;;;;;;;;21.92;36.11;99623.66;6177493;23;19920;-78
2024/03/03 12:38:46;;;;;;;;;;;;;;;22.43;35.36;99620.22;6188098;23;19964;-78
2024/03/03 12:41:12;;;;;;;;;;;;;;;22.41;35.39;99620.50;6200933;23;20317;-78
2024/03/03 12:43:46;;;;;;;;;;;;;;;22.64;35.03;99617.84;6187975;23;20018;-77
2024/03/03 12:46:11;;;;;;;;;;;;;;;22.43;35.49;99615.53;6184784;23;20032;-78
2024/03/03 12:48:45;;;;;;;;;;;;;;;22.84;34.79;99609.16;6184485;23;20369;-78
2024/03/03 12:51:13;;;;;;;;;;;;;;;22.98;34.50;99614.59;6181705;23;19912;-78